sensor_id;sensor_type;location;lat;lon;timestamp;pressure;altitude;pressure_sealevel;temperature;humidity
69411;BME280;56604;48.652;9.194;2023-03-31T00:02:17;95685.41;;;10.18;71.26
69411;BME280;56604;48.652;9.194;2023-03-31T00:04:46;95677.03;;;10.16;71.87
69411;BME280;56604;48.652;9.194;2023-03-31T00:07:18;95684.88;;;10.11;71.79
69411;BME280;56604;48.652;9.194;2023-03-31T00:09:47;95675.41;;;10.10;72.53
69411;BME280;56604;48.652;9.194;2023-03-31T00:12:13;95665.97;;;10.09;72.44
69411;BME280;56604;48.652;9.194;2023-03-31T00:14:39;95664.91;;;10.05;72.33
69411;BME280;56604;48.652;9.194;2023-03-31T00:17:04;95665.69;;;10.05;72.39
69411;BME280;56604;48.652;9.194;2023-03-31T00:19:29;95660.44;;;10.05;72.70
69411;BME280;56604;48.652;9.194;2023-03-31T00:21:57;95664.41;;;10.08;72.60
69411;BME280;56604;48.652;9.194;2023-03-31T00:24:29;95665.97;;;10.09;72.45
69411;BME280;56604;48.652;9.194;2023-03-31T00:26:58;95647.34;;;10.10;72.33
69411;BME280;56604;48.652;9.194;2023-03-31T00:29:23;95641.81;;;10.12;71.91
69411;BME280;56604;48.652;9.194;2023-03-31T00:31:49;95648.13;;;10.16;71.74
69411;BME280;56604;48.652;9.194;2023-03-31T00:34:14;95634.97;;;10.11;72.24
69411;BME280;56604;48.652;9.194;2023-03-31T00:36:40;95638.13;;;10.18;71.67
69411;BME280;56604;48.652;9.194;2023-03-31T00:39:13;95633.94;;;10.17;71.71
69411;BME280;56604;48.652;9.194;2023-03-31T00:41:39;95642.88;;;10.21;71.64
69411;BME280;56604;48.652;9.194;2023-03-31T00:44:37;95636.03;;;10.20;72.25
69411;BME280;56604;48.652;9.194;2023-03-31T00:51:54;95612.16;;;10.22;71.88
69411;BME280;56604;48.652;9.194;2023-03-31T00:54:22;95613.97;;;10.21;72.04
69411;BME280;56604;48.652;9.194;2023-03-31T00:56:50;95604.00;;;10.23;71.51
69411;BME280;56604;48.652;9.194;2023-03-31T00:59:21;95602.97;;;10.19;71.66
69411;BME280;56604;48.652;9.194;2023-03-31T01:01:48;95598.50;;;10.35;70.98
69411;BME280;56604;48.652;9.194;2023-03-31T01:04:14;95593.50;;;10.44;71.10
69411;BME280;56604;48.652;9.194;2023-03-31T01:06:54;95583.03;;;10.33;70.91
69411;BME280;56604;48.652;9.194;2023-03-31T01:09:26;95581.19;;;10.29;71.57
69411;BME280;56604;48.652;9.194;2023-03-31T01:12:00;95571.94;;;10.26;71.65
69411;BME280;56604;48.652;9.194;2023-03-31T01:14:26;95571.16;;;10.21;71.86
69411;BME280;56604;48.652;9.194;2023-03-31T01:16:52;95569.31;;;10.21;71.67
69411;BME280;56604;48.652;9.194;2023-03-31T01:19:33;95571.16;;;10.21;71.61
69411;BME280;56604;48.652;9.194;2023-03-31T01:27:51;95563.81;;;10.18;71.88
69411;BME280;56604;48.652;9.194;2023-03-31T01:41:34;95555.41;;;10.41;71.45
69411;BME280;56604;48.652;9.194;2023-03-31T01:44:29;95557.78;;;10.43;71.40
69411;BME280;56604;48.652;9.194;2023-03-31T01:47:23;95553.59;;;10.42;72.10
69411;BME280;56604;48.652;9.194;2023-03-31T01:50:04;95560.69;;;10.36;73.11
69411;BME280;56604;48.652;9.194;2023-03-31T01:52:51;95567.25;;;10.33;73.97
69411;BME280;56604;48.652;9.194;2023-03-31T01:55:21;95566.19;;;10.34;73.51
69411;BME280;56604;48.652;9.194;2023-03-31T01:57:56;95566.72;;;10.37;73.77
69411;BME280;56604;48.652;9.194;2023-03-31T02:00:27;95563.28;;;10.41;74.20
69411;BME280;56604;48.652;9.194;2023-03-31T02:05:30;95553.84;;;10.35;74.20
69411;BME280;56604;48.652;9.194;2023-03-31T02:08:08;95551.50;;;10.33;74.36
69411;BME280;56604;48.652;9.194;2023-03-31T02:10:34;95562.00;;;10.28;74.96
69411;BME280;56604;48.652;9.194;2023-03-31T02:13:01;95550.97;;;10.31;74.62
69411;BME280;56604;48.652;9.194;2023-03-31T02:15:31;95543.09;;;10.31;75.65
69411;BME280;56604;48.652;9.194;2023-03-31T02:18:02;95553.56;;;10.26;76.13
69411;BME280;56604;48.652;9.194;2023-03-31T02:20:30;95545.94;;;10.20;76.58
69411;BME280;56604;48.652;9.194;2023-03-31T02:22:57;95534.66;;;10.14;76.98
69411;BME280;56604;48.652;9.194;2023-03-31T02:25:32;95527.81;;;10.13;77.69
69411;BME280;56604;48.652;9.194;2023-03-31T02:28:08;95522.59;;;10.08;78.39
69411;BME280;56604;48.652;9.194;2023-03-31T02:31:02;95511.28;;;9.97;79.29
69411;BME280;56604;48.652;9.194;2023-03-31T02:33:30;95507.84;;;9.81;81.49
69411;BME280;56604;48.652;9.194;2023-03-31T02:35:57;95502.59;;;9.81;81.18
69411;BME280;56604;48.652;9.194;2023-03-31T02:38:23;95480.56;;;9.77;80.61
69411;BME280;56604;48.652;9.194;2023-03-31T02:40:48;95470.31;;;9.76;81.54
69411;BME280;56604;48.652;9.194;2023-03-31T02:43:13;95449.59;;;9.64;81.88
69411;BME280;56604;48.652;9.194;2023-03-31T02:45:47;95430.94;;;9.55;82.31
69411;BME280;56604;48.652;9.194;2023-03-31T02:48:26;95419.66;;;9.44;82.94
69411;BME280;56604;48.652;9.194;2023-03-31T02:51:03;95418.88;;;9.34;83.65
69411;BME280;56604;48.652;9.194;2023-03-31T02:56:53;95408.13;;;9.40;82.97
69411;BME280;56604;48.652;9.194;2023-03-31T03:07:53;95378.72;;;9.33;83.77
69411;BME280;56604;48.652;9.194;2023-03-31T03:10:38;95371.41;;;9.30;83.52
69411;BME280;56604;48.652;9.194;2023-03-31T03:13:17;95358.31;;;9.25;84.23
69411;BME280;56604;48.652;9.194;2023-03-31T03:15:48;95352.00;;;9.21;83.51
69411;BME280;56604;48.652;9.194;2023-03-31T03:18:15;95353.56;;;9.12;83.58
69411;BME280;56604;48.652;9.194;2023-03-31T03:20:43;95348.31;;;9.07;84.27
69411;BME280;56604;48.652;9.194;2023-03-31T03:23:14;95332.06;;;8.94;84.84
69411;BME280;56604;48.652;9.194;2023-03-31T03:25:40;95332.56;;;8.91;85.09
69411;BME280;56604;48.652;9.194;2023-03-31T03:28:06;95329.41;;;8.89;84.48
69411;BME280;56604;48.652;9.194;2023-03-31T03:30:31;95326.25;;;8.87;85.09
69411;BME280;56604;48.652;9.194;2023-03-31T03:32:56;95323.66;;;8.92;84.79
69411;BME280;56604;48.652;9.194;2023-03-31T03:35:22;95310.28;;;8.89;84.99
69411;BME280;56604;48.652;9.194;2023-03-31T03:37:48;95311.88;;;8.95;84.41
69411;BME280;56604;48.652;9.194;2023-03-31T03:40:13;95306.88;;;8.98;84.42
69411;BME280;56604;48.652;9.194;2023-03-31T03:42:39;95296.91;;;8.95;84.37
69411;BME280;56604;48.652;9.194;2023-03-31T03:45:05;95295.88;;;8.96;84.07
69411;BME280;56604;48.652;9.194;2023-03-31T03:47:30;95282.25;;;8.94;85.07
69411;BME280;56604;48.652;9.194;2023-03-31T03:49:56;95282.25;;;8.94;84.45
69411;BME280;56604;48.652;9.194;2023-03-31T03:52:21;95274.63;;;8.93;85.88
69411;BME280;56604;48.652;9.194;2023-03-31T03:54:46;95274.91;;;8.86;85.95
69411;BME280;56604;48.652;9.194;2023-03-31T03:57:12;95261.81;;;8.86;84.89
69411;BME280;56604;48.652;9.194;2023-03-31T03:59:37;95250.53;;;8.81;85.60
69411;BME280;56604;48.652;9.194;2023-03-31T04:02:02;95249.22;;;8.88;85.17
69411;BME280;56604;48.652;9.194;2023-03-31T04:04:28;95239.78;;;8.87;85.42
69411;BME280;56604;48.652;9.194;2023-03-31T04:06:53;95239.00;;;8.82;85.75
69411;BME280;56604;48.652;9.194;2023-03-31T04:09:19;95241.59;;;8.76;85.41
69411;BME280;56604;48.652;9.194;2023-03-31T04:11:44;95224.06;;;8.72;86.04
69411;BME280;56604;48.652;9.194;2023-03-31T04:14:09;95218.81;;;8.72;86.34
69411;BME280;56604;48.652;9.194;2023-03-31T04:16:35;95190.53;;;8.64;86.23
69411;BME280;56604;48.652;9.194;2023-03-31T04:19:00;95171.41;;;8.68;85.17
69411;BME280;56604;48.652;9.194;2023-03-31T04:21:30;95183.19;;;8.66;85.63
69411;BME280;56604;48.652;9.194;2023-03-31T04:23:59;95175.34;;;8.61;86.35
69411;BME280;56604;48.652;9.194;2023-03-31T04:26:30;95183.72;;;8.73;85.66
69411;BME280;56604;48.652;9.194;2023-03-31T04:29:03;95174.28;;;8.77;85.45
69411;BME280;56604;48.652;9.194;2023-03-31T04:31:29;95175.31;;;8.81;85.32
69411;BME280;56604;48.652;9.194;2023-03-31T04:33:55;95174.25;;;8.87;85.33
69411;BME280;56604;48.652;9.194;2023-03-31T04:36:25;95175.28;;;8.96;84.01
69411;BME280;56604;48.652;9.194;2023-03-31T04:38:50;95169.00;;;9.03;82.97
69411;BME280;56604;48.652;9.194;2023-03-31T04:41:22;95167.41;;;9.12;82.99
69411;BME280;56604;48.652;9.194;2023-03-31T04:43:47;95170.28;;;9.15;82.66
69411;BME280;56604;48.652;9.194;2023-03-31T04:46:13;95163.19;;;9.16;83.26
69411;BME280;56604;48.652;9.194;2023-03-31T04:48:39;95163.19;;;9.21;82.90
69411;BME280;56604;48.652;9.194;2023-03-31T04:51:04;95154.28;;;9.17;83.08
69411;BME280;56604;48.652;9.194;2023-03-31T04:53:30;95160.03;;;9.19;81.83
69411;BME280;56604;48.652;9.194;2023-03-31T04:55:56;95146.97;;;9.14;82.75
69411;BME280;56604;48.652;9.194;2023-03-31T04:58:21;95142.22;;;9.21;82.08
69411;BME280;56604;48.652;9.194;2023-03-31T05:00:46;95152.44;;;9.22;82.35
69411;BME280;56604;48.652;9.194;2023-03-31T05:03:12;95145.88;;;9.25;81.62
69411;BME280;56604;48.652;9.194;2023-03-31T05:05:37;95138.78;;;9.31;81.73
69411;BME280;56604;48.652;9.194;2023-03-31T05:08:03;95143.25;;;9.25;82.69
69411;BME280;56604;48.652;9.194;2023-03-31T05:10:29;95141.91;;;9.28;83.47
69411;BME280;56604;48.652;9.194;2023-03-31T05:12:55;95125.16;;;9.23;83.67
69411;BME280;56604;48.652;9.194;2023-03-31T05:15:20;95132.25;;;9.23;84.18
69411;BME280;56604;48.652;9.194;2023-03-31T05:17:49;95139.88;;;9.19;84.80
69411;BME280;56604;48.652;9.194;2023-03-31T05:20:16;95152.75;;;9.11;86.74
69411;BME280;56604;48.652;9.194;2023-03-31T05:22:43;95166.34;;;9.13;86.99
69411;BME280;56604;48.652;9.194;2023-03-31T05:25:08;95172.66;;;9.12;87.65
69411;BME280;56604;48.652;9.194;2023-03-31T05:27:36;95173.19;;;9.04;88.11
69411;BME280;56604;48.652;9.194;2023-03-31T05:30:03;95184.22;;;9.00;88.92
69411;BME280;56604;48.652;9.194;2023-03-31T05:32:28;95177.91;;;8.96;89.75
69411;BME280;56604;48.652;9.194;2023-03-31T05:34:54;95179.75;;;9.01;89.54
69411;BME280;56604;48.652;9.194;2023-03-31T05:37:22;95167.94;;;9.04;90.73
69411;BME280;56604;48.652;9.194;2023-03-31T05:39:48;95140.91;;;9.13;90.00
69411;BME280;56604;48.652;9.194;2023-03-31T05:42:14;95143.53;;;9.18;91.29
69411;BME280;56604;48.652;9.194;2023-03-31T05:44:39;95156.44;;;8.89;91.92
69411;BME280;56604;48.652;9.194;2023-03-31T05:47:04;95148.31;;;8.91;91.36
69411;BME280;56604;48.652;9.194;2023-03-31T05:49:30;95132.81;;;9.05;92.13
69411;BME280;56604;48.652;9.194;2023-03-31T05:51:55;95123.41;;;8.93;92.84
69411;BME280;56604;48.652;9.194;2023-03-31T05:54:21;95120.75;;;9.04;92.18
69411;BME280;56604;48.652;9.194;2023-03-31T05:56:46;95123.97;;;8.85;92.59
69411;BME280;56604;48.652;9.194;2023-03-31T05:59:12;95128.44;;;8.74;93.82
69411;BME280;56604;48.652;9.194;2023-03-31T06:01:37;95116.34;;;8.73;94.31
69411;BME280;56604;48.652;9.194;2023-03-31T06:04:02;95108.75;;;8.82;93.83
69411;BME280;56604;48.652;9.194;2023-03-31T06:06:28;95091.22;;;8.77;94.65
69411;BME280;56604;48.652;9.194;2023-03-31T06:08:53;95079.97;;;8.77;94.05
69411;BME280;56604;48.652;9.194;2023-03-31T06:11:20;95081.50;;;8.78;94.70
69411;BME280;56604;48.652;9.194;2023-03-31T06:13:46;95086.22;;;8.76;94.92
69411;BME280;56604;48.652;9.194;2023-03-31T06:16:14;95084.63;;;8.90;94.61
69411;BME280;56604;48.652;9.194;2023-03-31T06:18:40;95072.56;;;8.99;95.13
69411;BME280;56604;48.652;9.194;2023-03-31T06:21:06;95071.75;;;8.99;94.22
69411;BME280;56604;48.652;9.194;2023-03-31T06:23:32;95065.78;;;8.88;94.37
69411;BME280;56604;48.652;9.194;2023-03-31T06:26:04;95061.06;;;8.85;95.21
69411;BME280;56604;48.652;9.194;2023-03-31T06:28:31;95067.56;;;8.93;95.01
69411;BME280;56604;48.652;9.194;2023-03-31T06:31:06;95073.06;;;8.96;94.24
69411;BME280;56604;48.652;9.194;2023-03-31T06:33:33;95073.34;;;8.90;94.73
69411;BME280;56604;48.652;9.194;2023-03-31T06:35:59;95065.50;;;8.85;95.21
69411;BME280;56604;48.652;9.194;2023-03-31T06:38:28;95063.38;;;8.97;95.42
69411;BME280;56604;48.652;9.194;2023-03-31T06:40:53;95060.53;;;8.88;95.65
69411;BME280;56604;48.652;9.194;2023-03-31T06:43:19;95072.34;;;8.86;95.86
69411;BME280;56604;48.652;9.194;2023-03-31T06:45:45;95075.19;;;8.99;95.40
69411;BME280;56604;48.652;9.194;2023-03-31T06:48:11;95093.53;;;8.94;94.75
69411;BME280;56604;48.652;9.194;2023-03-31T06:50:37;95100.84;;;9.03;95.20
69411;BME280;56604;48.652;9.194;2023-03-31T06:53:03;95114.25;;;8.91;95.72
69411;BME280;56604;48.652;9.194;2023-03-31T06:55:28;95120.03;;;8.77;96.40
69411;BME280;56604;48.652;9.194;2023-03-31T06:57:54;95124.22;;;8.94;96.43
69411;BME280;56604;48.652;9.194;2023-03-31T07:00:20;95135.19;;;8.96;96.83
69411;BME280;56604;48.652;9.194;2023-03-31T07:02:45;95147.50;;;9.06;96.55
69411;BME280;56604;48.652;9.194;2023-03-31T07:05:10;95161.13;;;9.08;96.12
69411;BME280;56604;48.652;9.194;2023-03-31T07:07:35;95158.53;;;8.97;95.56
69411;BME280;56604;48.652;9.194;2023-03-31T07:10:01;95186.31;;;8.98;96.05
69411;BME280;56604;48.652;9.194;2023-03-31T07:12:27;95147.00;;;8.93;95.46
69411;BME280;56604;48.652;9.194;2023-03-31T07:14:52;95120.25;;;8.96;95.38
69411;BME280;56604;48.652;9.194;2023-03-31T07:17:17;95125.47;;;8.96;94.97
69411;BME280;56604;48.652;9.194;2023-03-31T07:19:42;95138.06;;;9.05;93.71
69411;BME280;56604;48.652;9.194;2023-03-31T07:22:12;95117.09;;;9.05;93.82
69411;BME280;56604;48.652;9.194;2023-03-31T07:24:39;95041.09;;;8.99;92.48
69411;BME280;56604;48.652;9.194;2023-03-31T07:27:04;95059.84;;;9.22;91.43
69411;BME280;56604;48.652;9.194;2023-03-31T07:29:30;95077.19;;;9.23;89.18
69411;BME280;56604;48.652;9.194;2023-03-31T07:31:55;95071.94;;;9.23;89.34
69411;BME280;56604;48.652;9.194;2023-03-31T07:34:21;95076.19;;;9.14;88.70
69411;BME280;56604;48.652;9.194;2023-03-31T07:36:46;95084.31;;;9.07;88.36
69411;BME280;56604;48.652;9.194;2023-03-31T07:39:11;95090.84;;;9.15;88.12
69411;BME280;56604;48.652;9.194;2023-03-31T07:41:37;95092.91;;;9.23;88.37
69411;BME280;56604;48.652;9.194;2023-03-31T07:44:02;95090.00;;;9.30;87.79
69411;BME280;56604;48.652;9.194;2023-03-31T07:46:28;95088.13;;;9.35;87.87
69411;BME280;56604;48.652;9.194;2023-03-31T07:48:55;95080.34;;;9.69;86.48
69411;BME280;56604;48.652;9.194;2023-03-31T07:51:23;95080.16;;;9.56;85.89
69411;BME280;56604;48.652;9.194;2023-03-31T07:53:50;95065.88;;;9.77;86.37
69411;BME280;56604;48.652;9.194;2023-03-31T07:56:17;95060.53;;;9.48;86.87
69411;BME280;56604;48.652;9.194;2023-03-31T07:58:43;95054.25;;;10.23;86.51
69411;BME280;56604;48.652;9.194;2023-03-31T08:01:08;95048.94;;;11.10;82.83
69411;BME280;56604;48.652;9.194;2023-03-31T08:03:34;95050.25;;;11.32;81.66
69411;BME280;56604;48.652;9.194;2023-03-31T08:05:59;95039.16;;;11.35;80.14
69411;BME280;56604;48.652;9.194;2023-03-31T08:08:25;95035.72;;;11.15;80.82
69411;BME280;56604;48.652;9.194;2023-03-31T08:10:51;95043.53;;;11.20;80.38
69411;BME280;56604;48.652;9.194;2023-03-31T08:13:17;95027.72;;;12.34;78.86
69411;BME280;56604;48.652;9.194;2023-03-31T08:15:42;95022.22;;;13.55;75.57
69411;BME280;56604;48.652;9.194;2023-03-31T08:18:07;95016.75;;;14.55;72.12
69411;BME280;56604;48.652;9.194;2023-03-31T08:20:33;95028.84;;;14.87;70.66
69411;BME280;56604;48.652;9.194;2023-03-31T08:22:58;95022.44;;;15.37;67.36
69411;BME280;56604;48.652;9.194;2023-03-31T08:25:24;95022.69;;;15.84;67.53
69411;BME280;56604;48.652;9.194;2023-03-31T08:27:49;95020.81;;;15.76;65.51
69411;BME280;56604;48.652;9.194;2023-03-31T08:30:16;95023.78;;;15.74;65.08
69411;BME280;56604;48.652;9.194;2023-03-31T08:32:42;95023.28;;;16.15;65.59
69411;BME280;56604;48.652;9.194;2023-03-31T08:35:08;95028.91;;;16.05;63.97
69411;BME280;56604;48.652;9.194;2023-03-31T08:37:35;95021.09;;;16.82;61.50
69411;BME280;56604;48.652;9.194;2023-03-31T08:40:00;95011.34;;;16.56;60.29
69411;BME280;56604;48.652;9.194;2023-03-31T08:42:36;95014.09;;;16.69;62.97
69411;BME280;56604;48.652;9.194;2023-03-31T08:45:48;95022.13;;;16.98;61.59
69411;BME280;56604;48.652;9.194;2023-03-31T08:48:01;95016.91;;;17.40;59.94
69411;BME280;56604;48.652;9.194;2023-03-31T08:50:33;95014.31;;;17.31;58.30
69411;BME280;56604;48.652;9.194;2023-03-31T08:53:04;95018.78;;;16.72;60.50
69411;BME280;56604;48.652;9.194;2023-03-31T08:55:43;95020.28;;;16.90;59.46
69411;BME280;56604;48.652;9.194;2023-03-31T09:01:07;95013.53;;;17.01;60.54
69411;BME280;56604;48.652;9.194;2023-03-31T09:06:15;95015.72;;;18.01;56.46
69411;BME280;56604;48.652;9.194;2023-03-31T09:08:42;95015.13;;;17.74;56.65
69411;BME280;56604;48.652;9.194;2023-03-31T09:13:46;95011.16;;;17.08;57.52
69411;BME280;56604;48.652;9.194;2023-03-31T09:16:34;94979.94;;;17.05;56.29
69411;BME280;56604;48.652;9.194;2023-03-31T09:19:07;94987.38;;;17.42;55.33
69411;BME280;56604;48.652;9.194;2023-03-31T09:21:44;94959.63;;;17.51;53.62
69411;BME280;56604;48.652;9.194;2023-03-31T09:24:29;94962.06;;;16.38;54.71
69411;BME280;56604;48.652;9.194;2023-03-31T09:27:06;94963.69;;;16.77;55.71
69411;BME280;56604;48.652;9.194;2023-03-31T09:29:42;94971.94;;;17.35;53.87
69411;BME280;56604;48.652;9.194;2023-03-31T09:32:15;94959.28;;;16.81;52.85
69411;BME280;56604;48.652;9.194;2023-03-31T09:34:40;94962.66;;;16.52;54.91
69411;BME280;56604;48.652;9.194;2023-03-31T09:37:08;94952.78;;;16.14;54.37
69411;BME280;56604;48.652;9.194;2023-03-31T09:39:34;94948.56;;;16.13;54.65
69411;BME280;56604;48.652;9.194;2023-03-31T09:42:00;94947.59;;;16.27;55.10
69411;BME280;56604;48.652;9.194;2023-03-31T09:44:40;94958.41;;;16.04;53.83
69411;BME280;56604;48.652;9.194;2023-03-31T09:47:14;94954.97;;;16.12;54.47
69411;BME280;56604;48.652;9.194;2023-03-31T09:49:43;94944.47;;;17.31;52.39
69411;BME280;56604;48.652;9.194;2023-03-31T09:52:15;94946.78;;;17.33;50.68
69411;BME280;56604;48.652;9.194;2023-03-31T09:54:49;94932.50;;;18.00;50.83
69411;BME280;56604;48.652;9.194;2023-03-31T09:57:30;94921.56;;;18.14;50.96
69411;BME280;56604;48.652;9.194;2023-03-31T10:00:05;94916.75;;;17.74;49.18
69411;BME280;56604;48.652;9.194;2023-03-31T10:02:41;94913.81;;;17.34;48.07
69411;BME280;56604;48.652;9.194;2023-03-31T10:05:20;94917.28;;;17.04;49.18
69411;BME280;56604;48.652;9.194;2023-03-31T10:07:46;94910.91;;;17.05;48.36
69411;BME280;56604;48.652;9.194;2023-03-31T10:10:30;94899.50;;;17.26;48.45
69411;BME280;56604;48.652;9.194;2023-03-31T10:12:57;94907.03;;;16.64;49.42
69411;BME280;56604;48.652;9.194;2023-03-31T10:15:26;94893.75;;;16.35;49.42
69411;BME280;56604;48.652;9.194;2023-03-31T10:17:52;94910.94;;;16.29;49.18
69411;BME280;56604;48.652;9.194;2023-03-31T10:20:30;94902.13;;;16.75;49.20
69411;BME280;56604;48.652;9.194;2023-03-31T10:23:01;94909.91;;;16.89;48.99
69411;BME280;56604;48.652;9.194;2023-03-31T10:25:27;94901.88;;;17.19;49.80
69411;BME280;56604;48.652;9.194;2023-03-31T10:27:54;94889.50;;;17.65;47.54
69411;BME280;56604;48.652;9.194;2023-03-31T10:30:23;94884.22;;;18.10;46.99
69411;BME280;56604;48.652;9.194;2023-03-31T10:32:50;94842.38;;;17.20;45.93
69411;BME280;56604;48.652;9.194;2023-03-31T10:35:31;94820.63;;;17.05;46.40
69411;BME280;56604;48.652;9.194;2023-03-31T10:38:03;94851.78;;;16.37;48.41
69411;BME280;56604;48.652;9.194;2023-03-31T10:40:31;94860.44;;;17.05;47.46
69411;BME280;56604;48.652;9.194;2023-03-31T10:43:07;94851.63;;;17.68;46.37
69411;BME280;56604;48.652;9.194;2023-03-31T10:45:52;94844.81;;;17.25;46.26
69411;BME280;56604;48.652;9.194;2023-03-31T10:48:33;94824.97;;;17.43;44.94
69411;BME280;56604;48.652;9.194;2023-03-31T10:51:10;94830.28;;;17.43;44.44
69411;BME280;56604;48.652;9.194;2023-03-31T10:53:46;94843.25;;;17.78;44.62
69411;BME280;56604;48.652;9.194;2023-03-31T11:01:32;94839.53;;;16.74;45.20
69411;BME280;56604;48.652;9.194;2023-03-31T11:06:51;94849.66;;;17.44;45.86
69411;BME280;56604;48.652;9.194;2023-03-31T11:09:34;94847.00;;;16.81;46.77
69411;BME280;56604;48.652;9.194;2023-03-31T11:12:34;94820.13;;;16.32;46.84
69411;BME280;56604;48.652;9.194;2023-03-31T11:15:07;94859.03;;;15.46;51.96
69411;BME280;56604;48.652;9.194;2023-03-31T11:20:27;94895.06;;;13.02;64.88
69411;BME280;56604;48.652;9.194;2023-03-31T11:25:56;94977.09;;;11.53;72.25
69411;BME280;56604;48.652;9.194;2023-03-31T11:34:10;95046.44;;;8.69;84.09
69411;BME280;56604;48.652;9.194;2023-03-31T11:42:07;95047.50;;;8.63;83.75
69411;BME280;56604;48.652;9.194;2023-03-31T11:44:42;95044.09;;;8.57;84.13
69411;BME280;56604;48.652;9.194;2023-03-31T11:47:18;95028.63;;;8.71;83.88
69411;BME280;56604;48.652;9.194;2023-03-31T11:50:10;95020.41;;;8.88;82.77
69411;BME280;56604;48.652;9.194;2023-03-31T11:52:40;94999.63;;;9.07;81.62
69411;BME280;56604;48.652;9.194;2023-03-31T11:55:14;94986.69;;;9.26;81.15
69411;BME280;56604;48.652;9.194;2023-03-31T11:57:45;94991.53;;;9.48;78.73
69411;BME280;56604;48.652;9.194;2023-03-31T12:00:25;94976.81;;;9.57;77.71
69411;BME280;56604;48.652;9.194;2023-03-31T12:05:47;94974.47;;;10.48;75.71
69411;BME280;56604;48.652;9.194;2023-03-31T12:08:18;94971.31;;;10.70;74.02
69411;BME280;56604;48.652;9.194;2023-03-31T12:10:59;94958.19;;;10.89;75.20
69411;BME280;56604;48.652;9.194;2023-03-31T12:14:37;94943.63;;;10.77;73.51
69411;BME280;56604;48.652;9.194;2023-03-31T12:16:42;94956.94;;;11.05;73.03
69411;BME280;56604;48.652;9.194;2023-03-31T12:21:49;94958.38;;;11.35;71.27
69411;BME280;56604;48.652;9.194;2023-03-31T12:24:15;94948.88;;;11.72;72.01
69411;BME280;56604;48.652;9.194;2023-03-31T12:29:35;94933.03;;;12.37;67.39
69411;BME280;56604;48.652;9.194;2023-03-31T12:32:09;94902.19;;;12.52;66.85
69411;BME280;56604;48.652;9.194;2023-03-31T12:34:54;94901.22;;;12.62;67.56
69411;BME280;56604;48.652;9.194;2023-03-31T12:45:54;94866.84;;;12.89;64.87
69411;BME280;56604;48.652;9.194;2023-03-31T12:54:40;94846.63;;;12.98;63.18
69411;BME280;56604;48.652;9.194;2023-03-31T12:57:18;94865.06;;;13.35;64.74
69411;BME280;56604;48.652;9.194;2023-03-31T12:59:44;94860.78;;;13.39;62.97
69411;BME280;56604;48.652;9.194;2023-03-31T13:04:39;94881.56;;;13.63;61.63
69411;BME280;56604;48.652;9.194;2023-03-31T13:12:38;94877.38;;;13.62;61.86
69411;BME280;56604;48.652;9.194;2023-03-31T13:15:04;94879.91;;;13.67;62.42
69411;BME280;56604;48.652;9.194;2023-03-31T13:17:35;94880.19;;;13.65;60.66
69411;BME280;56604;48.652;9.194;2023-03-31T13:20:31;94870.28;;;13.48;61.15
69411;BME280;56604;48.652;9.194;2023-03-31T13:27:57;94851.69;;;13.54;61.05
69411;BME280;56604;48.652;9.194;2023-03-31T13:33:07;94874.16;;;13.06;62.90
69411;BME280;56604;48.652;9.194;2023-03-31T13:35:36;94909.38;;;12.74;63.43
69411;BME280;56604;48.652;9.194;2023-03-31T13:41:09;94915.84;;;11.47;70.12
69411;BME280;56604;48.652;9.194;2023-03-31T13:52:02;94956.59;;;9.13;82.77
69411;BME280;56604;48.652;9.194;2023-03-31T13:54:52;94950.94;;;8.95;84.10
69411;BME280;56604;48.652;9.194;2023-03-31T13:57:57;94920.34;;;8.81;83.03
69411;BME280;56604;48.652;9.194;2023-03-31T14:03:43;94901.47;;;8.84;82.88
69411;BME280;56604;48.652;9.194;2023-03-31T14:09:09;94852.97;;;8.91;81.81
69411;BME280;56604;48.652;9.194;2023-03-31T14:11:34;94852.13;;;9.30;82.21
69411;BME280;56604;48.652;9.194;2023-03-31T14:19:36;94853.25;;;10.73;78.15
69411;BME280;56604;48.652;9.194;2023-03-31T14:28:08;94869.94;;;10.45;78.25
69411;BME280;56604;48.652;9.194;2023-03-31T14:31:11;94881.41;;;10.01;79.11
69411;BME280;56604;48.652;9.194;2023-03-31T14:39:13;94859.53;;;10.34;79.18
69411;BME280;56604;48.652;9.194;2023-03-31T14:41:43;94866.25;;;10.84;79.08
69411;BME280;56604;48.652;9.194;2023-03-31T14:44:13;94875.25;;;11.34;76.49
69411;BME280;56604;48.652;9.194;2023-03-31T14:46:39;94863.41;;;11.51;76.31
69411;BME280;56604;48.652;9.194;2023-03-31T14:49:13;94861.28;;;11.01;79.13
69411;BME280;56604;48.652;9.194;2023-03-31T14:51:43;94858.44;;;11.16;77.82
69411;BME280;56604;48.652;9.194;2023-03-31T14:54:16;94859.88;;;11.41;76.63
69411;BME280;56604;48.652;9.194;2023-03-31T14:56:45;94866.00;;;11.37;76.86
69411;BME280;56604;48.652;9.194;2023-03-31T14:59:17;94853.56;;;11.23;77.28
69411;BME280;56604;48.652;9.194;2023-03-31T15:01:45;94825.09;;;11.12;74.57
69411;BME280;56604;48.652;9.194;2023-03-31T15:04:15;94832.69;;;11.13;75.03
69411;BME280;56604;48.652;9.194;2023-03-31T15:06:43;94823.72;;;11.14;75.44
69411;BME280;56604;48.652;9.194;2023-03-31T15:09:17;94827.00;;;11.06;75.04
69411;BME280;56604;48.652;9.194;2023-03-31T15:11:45;94826.28;;;11.19;74.20
69411;BME280;56604;48.652;9.194;2023-03-31T15:14:11;94818.09;;;11.21;74.56
69411;BME280;56604;48.652;9.194;2023-03-31T15:16:44;94812.06;;;11.20;74.72
69411;BME280;56604;48.652;9.194;2023-03-31T15:19:21;94802.19;;;11.12;72.12
69411;BME280;56604;48.652;9.194;2023-03-31T15:22:07;94800.22;;;11.04;72.46
69411;BME280;56604;48.652;9.194;2023-03-31T15:24:34;94800.78;;;11.01;72.49
69411;BME280;56604;48.652;9.194;2023-03-31T15:29:45;94813.53;;;10.94;71.84
69411;BME280;56604;48.652;9.194;2023-03-31T15:32:26;94816.66;;;10.96;71.18
69411;BME280;56604;48.652;9.194;2023-03-31T15:34:54;94821.56;;;10.84;71.47
69411;BME280;56604;48.652;9.194;2023-03-31T15:37:26;94819.81;;;10.79;70.94
69411;BME280;56604;48.652;9.194;2023-03-31T15:39:55;94819.66;;;10.70;71.86
69411;BME280;56604;48.652;9.194;2023-03-31T15:42:22;94836.53;;;10.64;71.42
69411;BME280;56604;48.652;9.194;2023-03-31T15:47:49;94832.88;;;10.65;72.56
69411;BME280;56604;48.652;9.194;2023-03-31T15:50:15;94826.19;;;10.54;73.31